sensor_id;sensor_type;location;lat;lon;timestamp;P1;durP1;ratioP1;P2;durP2;ratioP2
41201;SDS011;26936;50.524;8.684;2022-10-16T00:01:20;2.40;;;0.70;;
41201;SDS011;26936;50.524;8.684;2022-10-16T00:03:48;4.38;;;0.82;;
41201;SDS011;26936;50.524;8.684;2022-10-16T00:06:14;1.50;;;0.55;;
41201;SDS011;26936;50.524;8.684;2022-10-16T00:08:41;4.20;;;1.60;;
41201;SDS011;26936;50.524;8.684;2022-10-16T00:11:12;1.67;;;0.80;;
41201;SDS011;26936;50.524;8.684;2022-10-16T00:13:40;1.95;;;0.63;;
41201;SDS011;26936;50.524;8.684;2022-10-16T00:16:06;0.90;;;0.60;;
41201;SDS011;26936;50.524;8.684;2022-10-16T00:18:33;2.13;;;0.65;;
41201;SDS011;26936;50.524;8.684;2022-10-16T00:21:06;1.17;;;0.60;;
41201;SDS011;26936;50.524;8.684;2022-10-16T00:23:33;0.57;;;0.57;;
41201;SDS011;26936;50.524;8.684;2022-10-16T00:25:59;3.65;;;0.70;;
41201;SDS011;26936;50.524;8.684;2022-10-16T00:28:27;2.22;;;0.88;;
41201;SDS011;26936;50.524;8.684;2022-10-16T00:30:52;1.30;;;0.60;;
41201;SDS011;26936;50.524;8.684;2022-10-16T00:33:18;1.40;;;0.90;;
41201;SDS011;26936;50.524;8.684;2022-10-16T00:35:44;1.67;;;0.55;;
41201;SDS011;26936;50.524;8.684;2022-10-16T00:38:09;1.50;;;0.70;;
41201;SDS011;26936;50.524;8.684;2022-10-16T00:40:35;0.50;;;0.50;;
41201;SDS011;26936;50.524;8.684;2022-10-16T00:43:00;4.15;;;0.73;;
41201;SDS011;26936;50.524;8.684;2022-10-16T00:45:25;2.20;;;0.80;;
41201;SDS011;26936;50.524;8.684;2022-10-16T00:47:51;0.63;;;0.63;;
41201;SDS011;26936;50.524;8.684;2022-10-16T00:50:24;2.03;;;0.60;;
41201;SDS011;26936;50.524;8.684;2022-10-16T00:52:57;1.95;;;0.77;;
41201;SDS011;26936;50.524;8.684;2022-10-16T00:55:25;2.78;;;0.80;;
41201;SDS011;26936;50.524;8.684;2022-10-16T00:57:52;4.50;;;0.80;;
41201;SDS011;26936;50.524;8.684;2022-10-16T01:00:20;2.13;;;0.75;;
41201;SDS011;26936;50.524;8.684;2022-10-16T01:02:54;3.33;;;0.90;;
41201;SDS011;26936;50.524;8.684;2022-10-16T01:05:21;1.40;;;0.90;;
41201;SDS011;26936;50.524;8.684;2022-10-16T01:08:06;6.22;;;1.25;;
41201;SDS011;26936;50.524;8.684;2022-10-16T01:10:41;2.00;;;0.88;;
41201;SDS011;26936;50.524;8.684;2022-10-16T01:13:21;2.47;;;1.02;;
41201;SDS011;26936;50.524;8.684;2022-10-16T01:15:59;2.50;;;0.82;;
41201;SDS011;26936;50.524;8.684;2022-10-16T01:21:05;4.35;;;0.77;;
41201;SDS011;26936;50.524;8.684;2022-10-16T01:26:36;8.50;;;1.60;;
41201;SDS011;26936;50.524;8.684;2022-10-16T01:29:23;1.30;;;1.00;;
41201;SDS011;26936;50.524;8.684;2022-10-16T01:31:56;1.73;;;1.10;;
41201;SDS011;26936;50.524;8.684;2022-10-16T01:34:37;0.90;;;0.82;;
41201;SDS011;26936;50.524;8.684;2022-10-16T01:37:09;2.80;;;1.10;;
41201;SDS011;26936;50.524;8.684;2022-10-16T01:39:39;3.08;;;1.35;;
41201;SDS011;26936;50.524;8.684;2022-10-16T01:42:17;2.70;;;0.90;;
41201;SDS011;26936;50.524;8.684;2022-10-16T01:44:45;6.50;;;1.30;;
41201;SDS011;26936;50.524;8.684;2022-10-16T01:47:13;1.95;;;1.08;;
41201;SDS011;26936;50.524;8.684;2022-10-16T01:49:40;1.05;;;0.90;;
41201;SDS011;26936;50.524;8.684;2022-10-16T01:52:13;3.95;;;1.02;;
41201;SDS011;26936;50.524;8.684;2022-10-16T01:54:42;2.05;;;0.98;;
41201;SDS011;26936;50.524;8.684;2022-10-16T01:57:11;2.47;;;1.00;;
41201;SDS011;26936;50.524;8.684;2022-10-16T01:59:41;3.80;;;0.80;;
41201;SDS011;26936;50.524;8.684;2022-10-16T02:02:09;3.75;;;1.48;;
41201;SDS011;26936;50.524;8.684;2022-10-16T02:04:38;4.10;;;1.00;;
41201;SDS011;26936;50.524;8.684;2022-10-16T02:07:07;3.08;;;1.00;;
41201;SDS011;26936;50.524;8.684;2022-10-16T02:09:33;5.35;;;1.02;;
41201;SDS011;26936;50.524;8.684;2022-10-16T02:12:00;3.55;;;0.88;;
41201;SDS011;26936;50.524;8.684;2022-10-16T02:14:31;3.28;;;0.90;;
41201;SDS011;26936;50.524;8.684;2022-10-16T02:16:57;1.42;;;1.05;;
41201;SDS011;26936;50.524;8.684;2022-10-16T02:19:23;1.65;;;0.70;;
41201;SDS011;26936;50.524;8.684;2022-10-16T02:21:59;2.72;;;0.93;;
41201;SDS011;26936;50.524;8.684;2022-10-16T02:24:32;3.65;;;1.00;;
41201;SDS011;26936;50.524;8.684;2022-10-16T02:27:05;4.35;;;1.00;;
41201;SDS011;26936;50.524;8.684;2022-10-16T02:29:37;1.02;;;0.68;;
41201;SDS011;26936;50.524;8.684;2022-10-16T02:32:06;0.73;;;0.73;;
41201;SDS011;26936;50.524;8.684;2022-10-16T02:34:33;1.48;;;0.90;;
41201;SDS011;26936;50.524;8.684;2022-10-16T02:36:59;2.05;;;0.65;;
41201;SDS011;26936;50.524;8.684;2022-10-16T02:39:29;1.95;;;0.80;;
41201;SDS011;26936;50.524;8.684;2022-10-16T02:41:55;1.70;;;0.70;;
41201;SDS011;26936;50.524;8.684;2022-10-16T02:44:20;2.28;;;0.80;;
41201;SDS011;26936;50.524;8.684;2022-10-16T02:46:46;1.37;;;0.77;;
41201;SDS011;26936;50.524;8.684;2022-10-16T02:49:11;2.83;;;0.90;;
41201;SDS011;26936;50.524;8.684;2022-10-16T02:51:36;3.80;;;1.00;;
41201;SDS011;26936;50.524;8.684;2022-10-16T02:54:02;2.08;;;1.10;;
41201;SDS011;26936;50.524;8.684;2022-10-16T02:56:28;3.05;;;1.38;;
41201;SDS011;26936;50.524;8.684;2022-10-16T02:58:54;1.38;;;1.00;;
41201;SDS011;26936;50.524;8.684;2022-10-16T03:01:19;4.85;;;0.98;;
41201;SDS011;26936;50.524;8.684;2022-10-16T03:03:45;4.80;;;1.10;;
41201;SDS011;26936;50.524;8.684;2022-10-16T03:06:10;1.60;;;0.90;;
41201;SDS011;26936;50.524;8.684;2022-10-16T03:08:35;5.67;;;1.20;;
41201;SDS011;26936;50.524;8.684;2022-10-16T03:11:01;2.33;;;1.00;;
41201;SDS011;26936;50.524;8.684;2022-10-16T03:13:26;4.07;;;1.00;;
41201;SDS011;26936;50.524;8.684;2022-10-16T03:15:51;1.25;;;1.13;;
41201;SDS011;26936;50.524;8.684;2022-10-16T03:18:17;1.83;;;0.95;;
41201;SDS011;26936;50.524;8.684;2022-10-16T03:20:42;1.85;;;1.08;;
41201;SDS011;26936;50.524;8.684;2022-10-16T03:23:08;1.85;;;1.20;;
41201;SDS011;26936;50.524;8.684;2022-10-16T03:25:34;1.75;;;1.20;;
41201;SDS011;26936;50.524;8.684;2022-10-16T03:27:59;1.20;;;1.00;;
41201;SDS011;26936;50.524;8.684;2022-10-16T03:30:24;2.73;;;1.00;;
41201;SDS011;26936;50.524;8.684;2022-10-16T03:32:49;1.27;;;0.90;;
41201;SDS011;26936;50.524;8.684;2022-10-16T03:35:18;1.30;;;1.20;;
41201;SDS011;26936;50.524;8.684;2022-10-16T03:37:44;3.78;;;1.00;;
41201;SDS011;26936;50.524;8.684;2022-10-16T03:40:10;2.03;;;1.10;;
41201;SDS011;26936;50.524;8.684;2022-10-16T03:42:35;1.75;;;0.90;;
41201;SDS011;26936;50.524;8.684;2022-10-16T03:45:00;1.48;;;1.00;;
41201;SDS011;26936;50.524;8.684;2022-10-16T03:47:26;0.90;;;0.50;;
41201;SDS011;26936;50.524;8.684;2022-10-16T03:49:51;0.97;;;0.73;;
41201;SDS011;26936;50.524;8.684;2022-10-16T03:52:16;2.30;;;1.00;;
41201;SDS011;26936;50.524;8.684;2022-10-16T03:54:42;3.85;;;0.80;;
41201;SDS011;26936;50.524;8.684;2022-10-16T03:57:07;0.57;;;0.55;;
41201;SDS011;26936;50.524;8.684;2022-10-16T03:59:32;1.95;;;0.90;;
41201;SDS011;26936;50.524;8.684;2022-10-16T04:01:58;3.58;;;0.90;;
41201;SDS011;26936;50.524;8.684;2022-10-16T04:04:23;3.10;;;1.05;;
41201;SDS011;26936;50.524;8.684;2022-10-16T04:06:49;1.40;;;0.80;;
41201;SDS011;26936;50.524;8.684;2022-10-16T04:09:15;1.73;;;0.85;;
41201;SDS011;26936;50.524;8.684;2022-10-16T04:11:40;1.00;;;0.70;;
41201;SDS011;26936;50.524;8.684;2022-10-16T04:14:05;3.85;;;0.98;;
41201;SDS011;26936;50.524;8.684;2022-10-16T04:16:31;2.67;;;1.00;;
41201;SDS011;26936;50.524;8.684;2022-10-16T04:18:56;5.50;;;0.80;;
41201;SDS011;26936;50.524;8.684;2022-10-16T04:21:21;1.73;;;0.87;;
41201;SDS011;26936;50.524;8.684;2022-10-16T04:23:47;3.60;;;1.02;;
41201;SDS011;26936;50.524;8.684;2022-10-16T04:26:12;3.20;;;1.60;;
41201;SDS011;26936;50.524;8.684;2022-10-16T04:28:38;1.60;;;0.77;;
41201;SDS011;26936;50.524;8.684;2022-10-16T04:31:03;1.87;;;0.93;;
41201;SDS011;26936;50.524;8.684;2022-10-16T04:33:29;2.70;;;0.88;;
41201;SDS011;26936;50.524;8.684;2022-10-16T04:35:57;4.20;;;0.90;;
41201;SDS011;26936;50.524;8.684;2022-10-16T04:38:24;1.15;;;0.90;;
41201;SDS011;26936;50.524;8.684;2022-10-16T04:40:50;7.43;;;1.10;;
41201;SDS011;26936;50.524;8.684;2022-10-16T04:43:15;1.20;;;0.93;;
41201;SDS011;26936;50.524;8.684;2022-10-16T04:45:40;1.42;;;0.88;;
41201;SDS011;26936;50.524;8.684;2022-10-16T04:48:06;4.93;;;1.25;;
41201;SDS011;26936;50.524;8.684;2022-10-16T04:50:31;1.40;;;1.00;;
41201;SDS011;26936;50.524;8.684;2022-10-16T04:52:56;1.63;;;1.00;;
41201;SDS011;26936;50.524;8.684;2022-10-16T04:55:22;2.85;;;1.00;;
41201;SDS011;26936;50.524;8.684;2022-10-16T04:57:47;3.67;;;0.90;;
41201;SDS011;26936;50.524;8.684;2022-10-16T05:00:12;2.03;;;0.80;;
41201;SDS011;26936;50.524;8.684;2022-10-16T05:02:38;1.20;;;0.82;;
41201;SDS011;26936;50.524;8.684;2022-10-16T05:05:03;2.03;;;0.57;;
41201;SDS011;26936;50.524;8.684;2022-10-16T05:07:29;1.73;;;0.70;;
41201;SDS011;26936;50.524;8.684;2022-10-16T05:09:54;1.87;;;0.97;;
41201;SDS011;26936;50.524;8.684;2022-10-16T05:12:19;2.10;;;0.73;;
41201;SDS011;26936;50.524;8.684;2022-10-16T05:14:44;0.90;;;0.70;;
41201;SDS011;26936;50.524;8.684;2022-10-16T05:17:10;1.48;;;0.68;;
41201;SDS011;26936;50.524;8.684;2022-10-16T05:19:35;2.90;;;0.70;;
41201;SDS011;26936;50.524;8.684;2022-10-16T05:22:00;4.63;;;0.80;;
41201;SDS011;26936;50.524;8.684;2022-10-16T05:24:26;1.95;;;0.70;;
41201;SDS011;26936;50.524;8.684;2022-10-16T05:26:51;0.38;;;0.38;;
41201;SDS011;26936;50.524;8.684;2022-10-16T05:29:17;1.83;;;0.60;;
41201;SDS011;26936;50.524;8.684;2022-10-16T05:31:42;1.33;;;0.75;;
41201;SDS011;26936;50.524;8.684;2022-10-16T05:34:07;2.03;;;0.60;;
41201;SDS011;26936;50.524;8.684;2022-10-16T05:36:33;2.78;;;0.73;;
41201;SDS011;26936;50.524;8.684;2022-10-16T05:38:58;1.77;;;0.70;;
41201;SDS011;26936;50.524;8.684;2022-10-16T05:41:23;1.10;;;1.00;;
41201;SDS011;26936;50.524;8.684;2022-10-16T05:43:50;2.17;;;1.20;;
41201;SDS011;26936;50.524;8.684;2022-10-16T05:46:16;1.92;;;1.30;;
41201;SDS011;26936;50.524;8.684;2022-10-16T05:48:42;2.35;;;1.80;;
41201;SDS011;26936;50.524;8.684;2022-10-16T05:51:10;2.78;;;1.60;;
41201;SDS011;26936;50.524;8.684;2022-10-16T05:53:37;3.20;;;1.92;;
41201;SDS011;26936;50.524;8.684;2022-10-16T05:56:04;3.20;;;2.40;;
41201;SDS011;26936;50.524;8.684;2022-10-16T05:58:31;5.50;;;2.88;;
41201;SDS011;26936;50.524;8.684;2022-10-16T06:01:01;5.85;;;2.58;;
41201;SDS011;26936;50.524;8.684;2022-10-16T06:03:32;3.42;;;2.63;;
41201;SDS011;26936;50.524;8.684;2022-10-16T06:05:57;3.40;;;2.78;;
41201;SDS011;26936;50.524;8.684;2022-10-16T06:08:23;4.55;;;2.55;;
41201;SDS011;26936;50.524;8.684;2022-10-16T06:10:48;3.45;;;2.60;;
41201;SDS011;26936;50.524;8.684;2022-10-16T06:13:25;5.85;;;2.58;;
41201;SDS011;26936;50.524;8.684;2022-10-16T06:15:50;4.60;;;2.70;;
41201;SDS011;26936;50.524;8.684;2022-10-16T06:18:15;5.13;;;3.45;;
41201;SDS011;26936;50.524;8.684;2022-10-16T06:20:40;4.13;;;3.63;;
41201;SDS011;26936;50.524;8.684;2022-10-16T06:23:06;5.53;;;3.60;;
41201;SDS011;26936;50.524;8.684;2022-10-16T06:25:31;4.65;;;3.42;;
41201;SDS011;26936;50.524;8.684;2022-10-16T06:27:56;3.92;;;2.97;;
41201;SDS011;26936;50.524;8.684;2022-10-16T06:30:22;3.10;;;2.40;;
41201;SDS011;26936;50.524;8.684;2022-10-16T06:32:47;3.47;;;2.30;;
41201;SDS011;26936;50.524;8.684;2022-10-16T06:35:12;5.20;;;2.60;;
41201;SDS011;26936;50.524;8.684;2022-10-16T06:37:38;4.00;;;2.15;;
41201;SDS011;26936;50.524;8.684;2022-10-16T06:40:03;2.60;;;2.23;;
41201;SDS011;26936;50.524;8.684;2022-10-16T06:42:29;3.63;;;2.75;;
41201;SDS011;26936;50.524;8.684;2022-10-16T06:44:55;5.75;;;3.05;;
41201;SDS011;26936;50.524;8.684;2022-10-16T06:47:20;7.90;;;3.03;;
41201;SDS011;26936;50.524;8.684;2022-10-16T06:49:45;4.80;;;3.30;;
41201;SDS011;26936;50.524;8.684;2022-10-16T06:52:10;5.60;;;3.90;;
41201;SDS011;26936;50.524;8.684;2022-10-16T06:54:36;5.40;;;3.80;;
41201;SDS011;26936;50.524;8.684;2022-10-16T06:57:01;4.40;;;3.53;;
41201;SDS011;26936;50.524;8.684;2022-10-16T06:59:26;5.03;;;4.00;;
41201;SDS011;26936;50.524;8.684;2022-10-16T07:01:52;7.13;;;4.22;;
41201;SDS011;26936;50.524;8.684;2022-10-16T07:04:17;6.27;;;4.17;;
41201;SDS011;26936;50.524;8.684;2022-10-16T07:06:42;5.93;;;4.10;;
41201;SDS011;26936;50.524;8.684;2022-10-16T07:09:09;6.03;;;3.38;;
41201;SDS011;26936;50.524;8.684;2022-10-16T07:11:36;4.85;;;3.17;;
41201;SDS011;26936;50.524;8.684;2022-10-16T07:14:02;3.28;;;2.95;;
41201;SDS011;26936;50.524;8.684;2022-10-16T07:16:28;5.10;;;3.00;;
41201;SDS011;26936;50.524;8.684;2022-10-16T07:18:56;5.63;;;3.42;;
41201;SDS011;26936;50.524;8.684;2022-10-16T07:21:24;6.70;;;3.10;;
41201;SDS011;26936;50.524;8.684;2022-10-16T07:23:54;7.65;;;3.45;;
41201;SDS011;26936;50.524;8.684;2022-10-16T07:26:24;4.03;;;3.33;;
41201;SDS011;26936;50.524;8.684;2022-10-16T07:28:50;3.25;;;2.45;;
41201;SDS011;26936;50.524;8.684;2022-10-16T07:31:17;4.10;;;2.40;;
41201;SDS011;26936;50.524;8.684;2022-10-16T07:33:44;2.90;;;2.35;;
41201;SDS011;26936;50.524;8.684;2022-10-16T07:36:12;3.72;;;2.67;;
41201;SDS011;26936;50.524;8.684;2022-10-16T07:38:38;4.07;;;2.42;;
41201;SDS011;26936;50.524;8.684;2022-10-16T07:41:04;3.15;;;2.53;;
41201;SDS011;26936;50.524;8.684;2022-10-16T07:43:32;2.50;;;2.03;;
41201;SDS011;26936;50.524;8.684;2022-10-16T07:45:58;4.55;;;2.30;;
41201;SDS011;26936;50.524;8.684;2022-10-16T07:48:28;5.38;;;2.25;;
41201;SDS011;26936;50.524;8.684;2022-10-16T07:50:58;3.80;;;2.08;;
41201;SDS011;26936;50.524;8.684;2022-10-16T07:53:24;2.85;;;2.33;;
41201;SDS011;26936;50.524;8.684;2022-10-16T07:55:50;3.30;;;2.78;;
41201;SDS011;26936;50.524;8.684;2022-10-16T07:58:15;5.28;;;2.80;;
41201;SDS011;26936;50.524;8.684;2022-10-16T08:00:40;7.13;;;5.10;;
41201;SDS011;26936;50.524;8.684;2022-10-16T08:03:05;7.10;;;5.40;;
41201;SDS011;26936;50.524;8.684;2022-10-16T08:05:31;2.00;;;1.80;;
41201;SDS011;26936;50.524;8.684;2022-10-16T08:07:57;4.22;;;1.83;;
41201;SDS011;26936;50.524;8.684;2022-10-16T08:10:24;2.00;;;1.50;;
41201;SDS011;26936;50.524;8.684;2022-10-16T08:12:51;1.77;;;1.52;;
41201;SDS011;26936;50.524;8.684;2022-10-16T08:15:17;2.58;;;1.65;;
41201;SDS011;26936;50.524;8.684;2022-10-16T08:17:43;6.53;;;2.60;;
41201;SDS011;26936;50.524;8.684;2022-10-16T08:20:08;1.45;;;1.27;;
41201;SDS011;26936;50.524;8.684;2022-10-16T08:22:34;3.55;;;1.58;;
41201;SDS011;26936;50.524;8.684;2022-10-16T08:25:00;1.93;;;1.77;;
41201;SDS011;26936;50.524;8.684;2022-10-16T08:27:30;10.93;;;1.70;;
41201;SDS011;26936;50.524;8.684;2022-10-16T08:29:56;2.72;;;1.33;;
41201;SDS011;26936;50.524;8.684;2022-10-16T08:32:21;2.30;;;1.33;;
41201;SDS011;26936;50.524;8.684;2022-10-16T08:34:46;2.77;;;1.60;;
41201;SDS011;26936;50.524;8.684;2022-10-16T08:37:12;4.13;;;1.40;;
41201;SDS011;26936;50.524;8.684;2022-10-16T08:39:38;1.45;;;1.33;;
41201;SDS011;26936;50.524;8.684;2022-10-16T08:42:15;2.60;;;1.42;;
41201;SDS011;26936;50.524;8.684;2022-10-16T08:47:43;2.65;;;1.40;;
41201;SDS011;26936;50.524;8.684;2022-10-16T08:50:13;1.88;;;1.67;;
41201;SDS011;26936;50.524;8.684;2022-10-16T08:52:43;1.85;;;1.60;;
41201;SDS011;26936;50.524;8.684;2022-10-16T08:55:28;3.28;;;1.52;;
41201;SDS011;26936;50.524;8.684;2022-10-16T08:57:57;2.17;;;1.63;;
41201;SDS011;26936;50.524;8.684;2022-10-16T09:00:23;4.15;;;1.50;;
41201;SDS011;26936;50.524;8.684;2022-10-16T09:16:44;1.85;;;1.10;;
41201;SDS011;26936;50.524;8.684;2022-10-16T09:19:24;1.70;;;1.50;;
41201;SDS011;26936;50.524;8.684;2022-10-16T09:21:56;2.60;;;1.30;;
41201;SDS011;26936;50.524;8.684;2022-10-16T09:24:26;1.38;;;1.08;;
41201;SDS011;26936;50.524;8.684;2022-10-16T09:26:52;2.53;;;1.58;;
41201;SDS011;26936;50.524;8.684;2022-10-16T09:29:18;1.38;;;1.10;;
41201;SDS011;26936;50.524;8.684;2022-10-16T09:31:49;3.92;;;1.63;;
41201;SDS011;26936;50.524;8.684;2022-10-16T09:34:26;4.78;;;1.30;;
41201;SDS011;26936;50.524;8.684;2022-10-16T09:36:57;2.80;;;1.48;;
41201;SDS011;26936;50.524;8.684;2022-10-16T09:39:29;2.88;;;1.55;;
41201;SDS011;26936;50.524;8.684;2022-10-16T09:41:54;1.73;;;1.33;;
41201;SDS011;26936;50.524;8.684;2022-10-16T09:44:28;2.53;;;1.58;;
41201;SDS011;26936;50.524;8.684;2022-10-16T09:47:05;2.60;;;1.40;;
41201;SDS011;26936;50.524;8.684;2022-10-16T09:49:37;2.23;;;1.17;;
41201;SDS011;26936;50.524;8.684;2022-10-16T09:52:03;3.72;;;1.70;;
41201;SDS011;26936;50.524;8.684;2022-10-16T09:54:53;2.58;;;1.40;;
41201;SDS011;26936;50.524;8.684;2022-10-16T09:57:20;3.03;;;1.08;;
41201;SDS011;26936;50.524;8.684;2022-10-16T09:59:55;2.63;;;1.45;;
41201;SDS011;26936;50.524;8.684;2022-10-16T10:02:30;1.98;;;1.30;;
41201;SDS011;26936;50.524;8.684;2022-10-16T10:04:58;2.28;;;1.05;;
41201;SDS011;26936;50.524;8.684;2022-10-16T10:07:25;1.50;;;0.90;;
41201;SDS011;26936;50.524;8.684;2022-10-16T10:09:52;1.20;;;0.90;;
41201;SDS011;26936;50.524;8.684;2022-10-16T10:12:23;4.07;;;1.23;;
41201;SDS011;26936;50.524;8.684;2022-10-16T10:14:51;3.92;;;1.33;;
41201;SDS011;26936;50.524;8.684;2022-10-16T10:20:27;3.83;;;1.20;;
41201;SDS011;26936;50.524;8.684;2022-10-16T10:22:47;1.08;;;0.93;;
41201;SDS011;26936;50.524;8.684;2022-10-16T10:30:20;4.45;;;2.13;;
41201;SDS011;26936;50.524;8.684;2022-10-16T11:01:08;4.53;;;1.20;;
41201;SDS011;26936;50.524;8.684;2022-10-16T11:06:25;0.68;;;0.63;;
41201;SDS011;26936;50.524;8.684;2022-10-16T11:08:55;2.35;;;0.70;;
41201;SDS011;26936;50.524;8.684;2022-10-16T11:11:37;1.10;;;0.60;;
41201;SDS011;26936;50.524;8.684;2022-10-16T11:21:48;0.77;;;0.50;;
41201;SDS011;26936;50.524;8.684;2022-10-16T11:24:20;13.82;;;5.90;;
41201;SDS011;26936;50.524;8.684;2022-10-16T11:26:54;3.97;;;2.35;;
41201;SDS011;26936;50.524;8.684;2022-10-16T11:29:25;1.77;;;0.95;;
41201;SDS011;26936;50.524;8.684;2022-10-16T11:31:57;1.02;;;0.93;;
41201;SDS011;26936;50.524;8.684;2022-10-16T11:37:12;0.88;;;0.40;;
41201;SDS011;26936;50.524;8.684;2022-10-16T11:39:45;0.88;;;0.80;;
41201;SDS011;26936;50.524;8.684;2022-10-16T11:42:22;0.20;;;0.20;;
41201;SDS011;26936;50.524;8.684;2022-10-16T11:47:43;0.63;;;0.30;;
41201;SDS011;26936;50.524;8.684;2022-10-16T11:50:23;0.82;;;0.47;;
41201;SDS011;26936;50.524;8.684;2022-10-16T11:53:31;1.27;;;0.60;;
41201;SDS011;26936;50.524;8.684;2022-10-16T11:56:03;1.83;;;0.22;;
41201;SDS011;26936;50.524;8.684;2022-10-16T11:58:37;0.25;;;0.20;;
41201;SDS011;26936;50.524;8.684;2022-10-16T12:04:14;1.75;;;0.32;;
41201;SDS011;26936;50.524;8.684;2022-10-16T12:07:11;0.43;;;0.22;;
41201;SDS011;26936;50.524;8.684;2022-10-16T12:09:40;1.25;;;0.32;;
41201;SDS011;26936;50.524;8.684;2022-10-16T12:15:03;0.20;;;0.20;;
41201;SDS011;26936;50.524;8.684;2022-10-16T12:17:43;1.38;;;0.32;;
41201;SDS011;26936;50.524;8.684;2022-10-16T12:22:37;1.70;;;0.40;;
41201;SDS011;26936;50.524;8.684;2022-10-16T12:28:19;2.15;;;0.40;;
41201;SDS011;26936;50.524;8.684;2022-10-16T12:30:53;1.90;;;1.67;;
41201;SDS011;26936;50.524;8.684;2022-10-16T12:33:24;3.45;;;2.30;;
41201;SDS011;26936;50.524;8.684;2022-10-16T12:35:52;1.60;;;0.50;;
41201;SDS011;26936;50.524;8.684;2022-10-16T12:38:25;0.38;;;0.20;;
41201;SDS011;26936;50.524;8.684;2022-10-16T12:41:03;1.15;;;0.30;;
41201;SDS011;26936;50.524;8.684;2022-10-16T12:48:34;0.40;;;0.30;;
41201;SDS011;26936;50.524;8.684;2022-10-16T12:51:43;3.10;;;0.50;;
41201;SDS011;26936;50.524;8.684;2022-10-16T12:54:10;1.17;;;0.40;;
41201;SDS011;26936;50.524;8.684;2022-10-16T13:08:48;1.70;;;0.55;;
41201;SDS011;26936;50.524;8.684;2022-10-16T13:11:05;1.30;;;0.50;;
41201;SDS011;26936;50.524;8.684;2022-10-16T13:13:58;1.15;;;0.60;;
41201;SDS011;26936;50.524;8.684;2022-10-16T13:22:17;0.90;;;0.40;;
41201;SDS011;26936;50.524;8.684;2022-10-16T13:27:59;3.75;;;1.30;;
41201;SDS011;26936;50.524;8.684;2022-10-16T13:30:27;1.48;;;1.38;;
41201;SDS011;26936;50.524;8.684;2022-10-16T13:32:59;2.97;;;1.50;;
41201;SDS011;26936;50.524;8.684;2022-10-16T13:35:29;2.60;;;1.50;;
41201;SDS011;26936;50.524;8.684;2022-10-16T13:38:30;3.70;;;1.65;;
41201;SDS011;26936;50.524;8.684;2022-10-16T13:41:03;1.67;;;1.33;;
41201;SDS011;26936;50.524;8.684;2022-10-16T13:46:07;2.92;;;1.30;;
41201;SDS011;26936;50.524;8.684;2022-10-16T13:48:37;6.50;;;2.03;;
41201;SDS011;26936;50.524;8.684;2022-10-16T13:51:10;3.78;;;1.17;;
41201;SDS011;26936;50.524;8.684;2022-10-16T13:53:38;4.00;;;1.40;;
41201;SDS011;26936;50.524;8.684;2022-10-16T13:56:05;2.78;;;1.35;;
41201;SDS011;26936;50.524;8.684;2022-10-16T13:58:34;2.60;;;1.30;;
41201;SDS011;26936;50.524;8.684;2022-10-16T14:01:00;2.55;;;1.42;;
41201;SDS011;26936;50.524;8.684;2022-10-16T14:03:30;3.47;;;1.58;;
41201;SDS011;26936;50.524;8.684;2022-10-16T14:06:00;4.18;;;1.00;;
41201;SDS011;26936;50.524;8.684;2022-10-16T14:08:29;1.58;;;1.00;;
41201;SDS011;26936;50.524;8.684;2022-10-16T14:10:56;2.17;;;1.13;;
41201;SDS011;26936;50.524;8.684;2022-10-16T14:13:38;0.95;;;0.88;;
41201;SDS011;26936;50.524;8.684;2022-10-16T14:16:09;3.72;;;1.23;;
41201;SDS011;26936;50.524;8.684;2022-10-16T14:18:41;2.05;;;0.90;;
41201;SDS011;26936;50.524;8.684;2022-10-16T14:21:13;2.50;;;0.98;;
41201;SDS011;26936;50.524;8.684;2022-10-16T14:23:41;2.83;;;1.10;;
41201;SDS011;26936;50.524;8.684;2022-10-16T14:28:36;3.08;;;0.90;;
41201;SDS011;26936;50.524;8.684;2022-10-16T14:31:03;1.80;;;1.00;;
41201;SDS011;26936;50.524;8.684;2022-10-16T14:33:45;2.40;;;0.88;;
41201;SDS011;26936;50.524;8.684;2022-10-16T14:38:35;2.13;;;1.17;;
41201;SDS011;26936;50.524;8.684;2022-10-16T14:41:03;0.80;;;0.80;;
41201;SDS011;26936;50.524;8.684;2022-10-16T14:43:36;1.17;;;0.90;;
41201;SDS011;26936;50.524;8.684;2022-10-16T14:46:03;1.17;;;0.70;;
41201;SDS011;26936;50.524;8.684;2022-10-16T14:48:34;2.90;;;0.90;;
41201;SDS011;26936;50.524;8.684;2022-10-16T14:50:59;1.52;;;1.10;;
41201;SDS011;26936;50.524;8.684;2022-10-16T14:53:24;3.23;;;1.10;;
41201;SDS011;26936;50.524;8.684;2022-10-16T14:55:50;2.23;;;1.10;;
41201;SDS011;26936;50.524;8.684;2022-10-16T15:00:46;1.70;;;1.13;;
41201;SDS011;26936;50.524;8.684;2022-10-16T15:03:12;1.58;;;1.00;;
41201;SDS011;26936;50.524;8.684;2022-10-16T15:05:37;5.07;;;1.20;;
41201;SDS011;26936;50.524;8.684;2022-10-16T15:08:03;1.38;;;1.00;;
41201;SDS011;26936;50.524;8.684;2022-10-16T15:10:29;1.40;;;1.00;;
41201;SDS011;26936;50.524;8.684;2022-10-16T15:12:57;3.35;;;1.35;;
41201;SDS011;26936;50.524;8.684;2022-10-16T15:17:57;3.97;;;1.67;;
41201;SDS011;26936;50.524;8.684;2022-10-16T15:20:26;1.58;;;1.27;;
41201;SDS011;26936;50.524;8.684;2022-10-16T15:22:53;2.13;;;1.35;;
41201;SDS011;26936;50.524;8.684;2022-10-16T15:25:26;2.33;;;1.33;;
41201;SDS011;26936;50.524;8.684;2022-10-16T15:27:56;3.65;;;1.50;;
41201;SDS011;26936;50.524;8.684;2022-10-16T15:30:21;2.55;;;1.40;;
41201;SDS011;26936;50.524;8.684;2022-10-16T15:32:46;3.28;;;1.45;;
41201;SDS011;26936;50.524;8.684;2022-10-16T15:35:11;2.83;;;1.30;;
41201;SDS011;26936;50.524;8.684;2022-10-16T15:37:37;1.48;;;1.25;;
41201;SDS011;26936;50.524;8.684;2022-10-16T15:40:02;1.67;;;1.50;;
41201;SDS011;26936;50.524;8.684;2022-10-16T15:42:28;1.95;;;1.60;;
41201;SDS011;26936;50.524;8.684;2022-10-16T15:44:53;1.93;;;1.50;;
41201;SDS011;26936;50.524;8.684;2022-10-16T15:47:18;4.03;;;1.65;;
41201;SDS011;26936;50.524;8.684;2022-10-16T15:49:44;6.25;;;1.60;;
41201;SDS011;26936;50.524;8.684;2022-10-16T15:52:10;3.25;;;1.30;;
41201;SDS011;26936;50.524;8.684;2022-10-16T15:54:36;5.07;;;2.03;;
41201;SDS011;26936;50.524;8.684;2022-10-16T15:57:01;2.77;;;1.50;;
41201;SDS011;26936;50.524;8.684;2022-10-16T15:59:26;3.50;;;1.70;;
41201;SDS011;26936;50.524;8.684;2022-10-16T16:01:51;2.83;;;1.80;;
41201;SDS011;26936;50.524;8.684;2022-10-16T16:04:20;2.78;;;1.83;;
41201;SDS011;26936;50.524;8.684;2022-10-16T16:06:45;4.65;;;1.95;;
41201;SDS011;26936;50.524;8.684;2022-10-16T16:09:11;3.95;;;2.00;;
41201;SDS011;26936;50.524;8.684;2022-10-16T16:11:38;3.45;;;1.90;;
41201;SDS011;26936;50.524;8.684;2022-10-16T16:14:04;2.15;;;1.90;;
41201;SDS011;26936;50.524;8.684;2022-10-16T16:16:30;3.17;;;2.00;;
41201;SDS011;26936;50.524;8.684;2022-10-16T16:19:01;2.92;;;2.22;;
41201;SDS011;26936;50.524;8.684;2022-10-16T16:21:26;2.97;;;2.00;;
41201;SDS011;26936;50.524;8.684;2022-10-16T16:23:52;3.97;;;1.80;;
41201;SDS011;26936;50.524;8.684;2022-10-16T16:28:51;4.22;;;2.17;;
41201;SDS011;26936;50.524;8.684;2022-10-16T16:31:17;3.65;;;2.13;;
41201;SDS011;26936;50.524;8.684;2022-10-16T16:33:43;4.82;;;1.90;;
41201;SDS011;26936;50.524;8.684;2022-10-16T16:36:08;3.73;;;1.83;;
41201;SDS011;26936;50.524;8.684;2022-10-16T16:38:34;2.95;;;1.90;;
41201;SDS011;26936;50.524;8.684;2022-10-16T16:41:10;2.45;;;1.80;;
41201;SDS011;26936;50.524;8.684;2022-10-16T16:43:36;3.92;;;1.92;;
41201;SDS011;26936;50.524;8.684;2022-10-16T16:46:01;3.27;;;2.07;;
41201;SDS011;26936;50.524;8.684;2022-10-16T16:48:26;3.33;;;2.53;;
41201;SDS011;26936;50.524;8.684;2022-10-16T16:50:52;6.53;;;2.70;;
41201;SDS011;26936;50.524;8.684;2022-10-16T16:53:17;3.95;;;2.60;;
41201;SDS011;26936;50.524;8.684;2022-10-16T16:55:42;4.37;;;2.70;;
41201;SDS011;26936;50.524;8.684;2022-10-16T16:58:07;6.27;;;2.63;;
41201;SDS011;26936;50.524;8.684;2022-10-16T17:00:33;11.93;;;2.97;;
41201;SDS011;26936;50.524;8.684;2022-10-16T17:02:58;5.85;;;2.70;;